Norbank — PGIS — position and weather

sailwx.info

Track history (hours):
 
Tides and Currents Weather Stations Pressure Air Temp Water Temp Dewpoint Dewpoint Depression Visibility Wind Speed Wind Dir Waves Ship Positions

Norbank

Operator: P & O Ferries

Last reported at 2020-Jan-28 21:01 UTC. Time now 2020-Jan-28 21:03 UTC.
Position N 53°27' W 003°01'.

Length 167 m; draft 5.8 m.

Type: Ship (hazmat cat A). MMSI: 246213000.

Date/timePositionNaut miles runAvg speedWind from/ knotsBaromVisibWave heightAir tempDewpointWater temp
2020-Jan-28 21:01N 53°27' W 003°01'0 0.0
2020-Jan-28 18:00N 53°27' W 003°01'111 8.2
2020-Jan-28 04:30N 53°20' W 006°06'10816.6
2020-Jan-27 22:00N 53°30' W 003°05'4 0.9
2020-Jan-27 18:00N 53°27' W 003°01'0 0.0
2020-Jan-27 17:00N 53°27' W 003°01'0 0.0
2020-Jan-27 16:27N 53°27' W 003°01'0 0.0
2020-Jan-27 15:29N 53°27' W 003°01'0 0.0
2020-Jan-27 12:28N 53°27' W 003°01'0 0.0
2020-Jan-27 11:58N 53°27' W 003°01'0 0.0
2020-Jan-27 11:28N 53°27' W 003°01'0 0.0
2020-Jan-27 06:00N 53°27' W 003°01'13 6.5
2020-Jan-27 04:00N 53°31' W 003°22'2911.4
2020-Jan-27 01:30N 53°34' W 004°10'6716.3
2020-Jan-26 21:24N 53°21' W 005°60'8 5.6
2020-Jan-26 20:00N 53°21' W 006°13'0 0.0
2020-Jan-26 18:30N 53°21' W 006°13'0 0.0
2020-Jan-26 17:59N 53°21' W 006°13'0 0.0
2020-Jan-26 15:29N 53°21' W 006°13'0 0.0
2020-Jan-26 14:28N 53°21' W 006°13'0 0.0
2020-Jan-26 13:42N 53°21' W 006°13'0 0.0
2020-Jan-26 11:39N 53°21' W 006°13'0 0.0
2020-Jan-26 11:30N 53°21' W 006°13'0 0.0
2020-Jan-26 10:56N 53°21' W 006°13'0 0.0
2020-Jan-26 09:59N 53°21' W 006°13'0 0.0
2020-Jan-26 09:29N 53°21' W 006°13'2 0.5
2020-Jan-26 05:30N 53°21' W 006°10'9814.0
2020-Jan-25 22:30N 53°33' W 003°27'16 4.0
2020-Jan-25 18:28N 53°27' W 003°01'0 0.0
2020-Jan-25 18:01N 53°27' W 003°01'0 0.0
2020-Jan-25 17:30N 53°27' W 003°01'1 0.4
2020-Jan-25 16:00N 53°27' W 003°01'1413.6
2020-Jan-25 15:00N 53°31' W 003°23'10214.0
2020-Jan-25 07:42N 53°21' W 006°13'0 0.0
2020-Jan-25 07:30N 53°21' W 006°13'10011.8
2020-Jan-24 23:00N 53°33' W 003°26'16 6.2
2020-Jan-24 20:30N 53°27' W 003°01'0 0.0
2020-Jan-24 20:00N 53°27' W 003°01'0 0.0
2020-Jan-24 19:27N 53°27' W 003°01'1 0.2
2020-Jan-24 16:00N 53°27' W 003°01'1212.1
2020-Jan-24 15:00N 53°31' W 003°20'1515.0
2020-Jan-24 14:00N 53°31' W 003°45'8913.6
2020-Jan-24 07:28N 53°21' W 006°13'0 0.0
2020-Jan-24 06:46N 53°21' W 006°13'9212.3
2020-Jan-23 23:19N 53°33' W 003°41'2216.7
2020-Jan-23 22:01N 53°29' W 003°05'3 0.5
2020-Jan-23 16:30N 53°27' W 003°01'5 5.2
2020-Jan-23 15:30N 53°31' W 003°07'2416.1
2020-Jan-23 14:00N 53°32' W 003°47'2617.1
2020-Jan-23 12:30N 53°36' W 004°30'5518.7
2020-Jan-23 09:33N 53°21' W 005°59'8 2.3
2020-Jan-23 05:59N 53°21' W 006°13'0 0.0
2020-Jan-23 05:16N 53°21' W 006°13'11511.1
2020-Jan-22 18:58N 53°27' W 003°01'14 3.5
2020-Jan-22 15:01N 53°31' W 003°23'10216.9
2020-Jan-22 09:00N 53°21' W 006°13'0 0.3
2020-Jan-22 08:22N 53°21' W 006°13'13 2.9
2020-Jan-22 04:00N 53°23' W 005°52'7617.5
2020-Jan-21 23:39N 53°34' W 003°45'27 8.6
2020-Jan-21 20:30N 53°27' W 003°01'115 8.7
2020-Jan-21 07:23N 53°21' W 006°13'0 0.0
2020-Jan-21 06:40N 53°21' W 006°13'12 4.4
2020-Jan-21 04:00N 53°23' W 005°54'10314.7
2020-Jan-20 21:01N 53°27' W 003°01'0 0.2
2020-Jan-20 18:28N 53°27' W 003°01'0 0.0
2020-Jan-20 16:58N 53°27' W 003°01'0 0.0
2020-Jan-20 15:00N 53°27' W 003°01'0 0.0
2020-Jan-20 13:30N 53°27' W 003°01'0 0.0
2020-Jan-20 11:59N 53°27' W 003°01'0 0.0
2020-Jan-20 10:59N 53°27' W 003°01'0 0.0
2020-Jan-20 09:28N 53°27' W 003°01'0 0.0
2020-Jan-20 08:58N 53°27' W 003°01'0 0.0
2020-Jan-20 07:00N 53°27' W 003°01'0 0.0
2020-Jan-20 06:00N 53°27' W 003°01'0 0.3
2020-Jan-20 05:30N 53°27' W 003°01'1 1.1
2020-Jan-20 05:00N 53°27' W 003°01'2315.5
2020-Jan-20 03:30N 53°31' W 003°39'1717.5
2020-Jan-20 02:30N 53°34' W 004°08'2212.6
2020-Jan-20 00:46N 53°34' W 004°45'4612.1
2020-Jan-19 20:59N 53°21' W 005°59'8 4.1
2020-Jan-19 18:59N 53°21' W 006°13'0 0.0
2020-Jan-19 18:29N 53°21' W 006°13'0 0.1
2020-Jan-19 16:16N 53°21' W 006°13'0 0.0
2020-Jan-19 12:42N 53°21' W 006°13'0 0.0
2020-Jan-19 10:59N 53°21' W 006°13'0 0.0
2020-Jan-19 10:26N 53°21' W 006°13'0 0.0
2020-Jan-19 09:40N 53°21' W 006°13'0 0.1
2020-Jan-19 08:19N 53°21' W 006°13'0 0.0
2020-Jan-19 06:30N 53°21' W 006°13'18 8.9
2020-Jan-19 04:29N 53°25' W 005°44'9314.4
2020-Jan-18 22:00N 53°32' W 003°08'611.9
2020-Jan-18 21:31N 53°27' W 003°01'  
Track history (hours):
 
Tides and Currents Weather Stations Pressure Air Temp Water Temp Dewpoint Dewpoint Depression Visibility Wind Speed Wind Dir Waves Ship Positions

Norbank

Operator: P & O Ferries

Last reported at 2020-Jan-28 21:01 UTC. Time now 2020-Jan-28 21:03 UTC.
Position N 53°27' W 003°01'.

Length 167 m; draft 5.8 m.

Type: Ship (hazmat cat A). MMSI: 246213000.

Date/timePositionNaut miles runAvg speedWind from/ knotsBaromVisibWave heightAir tempDewpointWater temp
2020-Jan-28 21:01N 53°27' W 003°01'0 0.0
2020-Jan-28 18:00N 53°27' W 003°01'111 8.2
2020-Jan-28 04:30N 53°20' W 006°06'10816.6
2020-Jan-27 22:00N 53°30' W 003°05'4 0.9
2020-Jan-27 18:00N 53°27' W 003°01'0 0.0
2020-Jan-27 17:00N 53°27' W 003°01'0 0.0
2020-Jan-27 16:27N 53°27' W 003°01'0 0.0
2020-Jan-27 15:29N 53°27' W 003°01'0 0.0
2020-Jan-27 12:28N 53°27' W 003°01'0 0.0
2020-Jan-27 11:58N 53°27' W 003°01'0 0.0
2020-Jan-27 11:28N 53°27' W 003°01'0 0.0
2020-Jan-27 06:00N 53°27' W 003°01'13 6.5
2020-Jan-27 04:00N 53°31' W 003°22'2911.4
2020-Jan-27 01:30N 53°34' W 004°10'6716.3
2020-Jan-26 21:24N 53°21' W 005°60'8 5.6
2020-Jan-26 20:00N 53°21' W 006°13'0 0.0
2020-Jan-26 18:30N 53°21' W 006°13'0 0.0
2020-Jan-26 17:59N 53°21' W 006°13'0 0.0
2020-Jan-26 15:29N 53°21' W 006°13'0 0.0
2020-Jan-26 14:28N 53°21' W 006°13'0 0.0
2020-Jan-26 13:42N 53°21' W 006°13'0 0.0
2020-Jan-26 11:39N 53°21' W 006°13'0 0.0
2020-Jan-26 11:30N 53°21' W 006°13'0 0.0
2020-Jan-26 10:56N 53°21' W 006°13'0 0.0
2020-Jan-26 09:59N 53°21' W 006°13'0 0.0
2020-Jan-26 09:29N 53°21' W 006°13'2 0.5
2020-Jan-26 05:30N 53°21' W 006°10'9814.0
2020-Jan-25 22:30N 53°33' W 003°27'16 4.0
2020-Jan-25 18:28N 53°27' W 003°01'0 0.0
2020-Jan-25 18:01N 53°27' W 003°01'0 0.0
2020-Jan-25 17:30N 53°27' W 003°01'1 0.4
2020-Jan-25 16:00N 53°27' W 003°01'1413.6
2020-Jan-25 15:00N 53°31' W 003°23'10214.0
2020-Jan-25 07:42N 53°21' W 006°13'0 0.0
2020-Jan-25 07:30N 53°21' W 006°13'10011.8
2020-Jan-24 23:00N 53°33' W 003°26'16 6.2
2020-Jan-24 20:30N 53°27' W 003°01'0 0.0
2020-Jan-24 20:00N 53°27' W 003°01'0 0.0
2020-Jan-24 19:27N 53°27' W 003°01'1 0.2
2020-Jan-24 16:00N 53°27' W 003°01'1212.1
2020-Jan-24 15:00N 53°31' W 003°20'1515.0
2020-Jan-24 14:00N 53°31' W 003°45'8913.6
2020-Jan-24 07:28N 53°21' W 006°13'0 0.0
2020-Jan-24 06:46N 53°21' W 006°13'9212.3
2020-Jan-23 23:19N 53°33' W 003°41'2216.7
2020-Jan-23 22:01N 53°29' W 003°05'3 0.5
2020-Jan-23 16:30N 53°27' W 003°01'5 5.2
2020-Jan-23 15:30N 53°31' W 003°07'2416.1
2020-Jan-23 14:00N 53°32' W 003°47'2617.1
2020-Jan-23 12:30N 53°36' W 004°30'5518.7
2020-Jan-23 09:33N 53°21' W 005°59'8 2.3
2020-Jan-23 05:59N 53°21' W 006°13'0 0.0
2020-Jan-23 05:16N 53°21' W 006°13'11511.1
2020-Jan-22 18:58N 53°27' W 003°01'14 3.5
2020-Jan-22 15:01N 53°31' W 003°23'10216.9
2020-Jan-22 09:00N 53°21' W 006°13'0 0.3
2020-Jan-22 08:22N 53°21' W 006°13'13 2.9
2020-Jan-22 04:00N 53°23' W 005°52'7617.5
2020-Jan-21 23:39N 53°34' W 003°45'27 8.6
2020-Jan-21 20:30N 53°27' W 003°01'115 8.7
2020-Jan-21 07:23N 53°21' W 006°13'0 0.0
2020-Jan-21 06:40N 53°21' W 006°13'12 4.4
2020-Jan-21 04:00N 53°23' W 005°54'10314.7
2020-Jan-20 21:01N 53°27' W 003°01'0 0.2
2020-Jan-20 18:28N 53°27' W 003°01'0 0.0
2020-Jan-20 16:58N 53°27' W 003°01'0 0.0
2020-Jan-20 15:00N 53°27' W 003°01'0 0.0
2020-Jan-20 13:30N 53°27' W 003°01'0 0.0
2020-Jan-20 11:59N 53°27' W 003°01'0 0.0
2020-Jan-20 10:59N 53°27' W 003°01'0 0.0
2020-Jan-20 09:28N 53°27' W 003°01'0 0.0
2020-Jan-20 08:58N 53°27' W 003°01'0 0.0
2020-Jan-20 07:00N 53°27' W 003°01'0 0.0
2020-Jan-20 06:00N 53°27' W 003°01'0 0.3
2020-Jan-20 05:30N 53°27' W 003°01'1 1.1
2020-Jan-20 05:00N 53°27' W 003°01'2315.5
2020-Jan-20 03:30N 53°31' W 003°39'1717.5
2020-Jan-20 02:30N 53°34' W 004°08'2212.6
2020-Jan-20 00:46N 53°34' W 004°45'4612.1
2020-Jan-19 20:59N 53°21' W 005°59'8 4.1
2020-Jan-19 18:59N 53°21' W 006°13'0 0.0
2020-Jan-19 18:29N 53°21' W 006°13'0 0.1
2020-Jan-19 16:16N 53°21' W 006°13'0 0.0
2020-Jan-19 12:42N 53°21' W 006°13'0 0.0
2020-Jan-19 10:59N 53°21' W 006°13'0 0.0
2020-Jan-19 10:26N 53°21' W 006°13'0 0.0
2020-Jan-19 09:40N 53°21' W 006°13'0 0.1
2020-Jan-19 08:19N 53°21' W 006°13'0 0.0
2020-Jan-19 06:30N 53°21' W 006°13'18 8.9
2020-Jan-19 04:29N 53°25' W 005°44'9314.4
2020-Jan-18 22:00N 53°32' W 003°08'611.9
2020-Jan-18 21:31N 53°27' W 003°01'  

Dump ship's entire track history